Howell, Arkansas
Current Conditions -  °F | °C
As of 5:56 PM on Monday 22 Dec 2014 (Local Time) from KSRC Reporting Station
Haze Haze  
Wind Chill: 53°   Ceiling: 2700
Heat Index: 53°   Visibility: 4mi
Dew Point: 52°   Wind: 6mph
Humidity: 96%   Direction: 160°SSE
Pressure: 29.59"   Gusts: NA
Location:  35.11°N, 91.25°W
Report Text: KSRC 222356Z AUTO 16005KT 4SM BR SCT014 BKN027 OVC065 12/11 A2959 RMK AO2 RAE20 SLP029 P0000 60001 T01170111 10122 20111 50002 TSNO
Loading
Personal Weather Stations






























Interactive Weather Map New forecast layout! Learn more

10-Day Weather Forecast

Advertisements
Track Severe Weather on mobile